LSME

Details ICAO LSME
Name Emmen
Region Switzerland
Timezone Europe/Zurich (UTC+2.0)
Plans Departing 50
Arriving 49
Stats Elevation 1,400 ft / 427 m (AMSL)
Location 47.092369° 8.305118°
Runways 1
Magnetic Variation 2.337° E
Sunrise 2018-05-23 03:44:01 UTC / 2018-05-23 05:44:01 Local
Sunset 2018-05-23 19:05:54 UTC / 2018-05-23 21:05:54 Local
Advertisement - Login to hide

Runways

ID Width Length Bearing (true) Bearing (mag) Surface Threshold Offset Overrun Length
04 130 ft / 40 m 8,202 ft / 2,500 m 37.49° 35.15° Asphalt 363 ft / 111 m 810 ft / 247 m
22 130 ft / 40 m 8,202 ft / 2,500 m 217.51° 215.17° Asphalt 596 ft / 182 m 747 ft / 228 m

Approach Navaids

Runway Type Ident Frequency Range Bearing (true) Bearing (mag) Slope Elevation
22 Localiser IEM 110.35 MHz 18 nm / 33 km 217.57° 215.23° - 1,400 ft / 427 m (AMSL)
22 Glidescope IEM 110.35 MHz 10 nm / 19 km 217.50° 215.16° 4.00° 1,406 ft / 429 m (AMSL)
22 DME IEM 110.35 MHz 18 nm / 33 km - - - 1,406 ft / 429 m (AMSL)

Map

Weather


0- 5 10 15 20 25 30 35+ Temperature / ° C

Clouds and Precipitation
Forecast for 2018-05-23 18:00 UTC. Updated 13 minutes ago

Ground ~20,000 ft ~40,000 ft Winds

METAR

LSME 231550Z AUTO 01003KT 330V070 9999NDV FEW037 21/12 Q1016 RMK

TAF

Not found

Frequencies

Tower 120.42 MHz TWR
Approach 119.50 MHz ARR/DEP
Warning: Do not use this data for real-world aviation or navigation. No guarantee of current accuracy is given.